createdAt,value
2022-09-23T00:00:07.036Z,4.74
2022-09-23T00:05:14.754Z,4.82
2022-09-23T00:10:22.669Z,4.9
2022-09-23T00:15:28.952Z,4.73
2022-09-23T00:20:36.105Z,4.72
2022-09-23T00:25:45.117Z,4.66
2022-09-23T00:30:52.607Z,4.76
2022-09-23T00:36:00.002Z,4.88
2022-09-23T00:41:07.750Z,4.92
2022-09-23T00:46:15.285Z,4.86
2022-09-23T00:51:21.868Z,4.7
2022-09-23T00:56:29.620Z,4.6
2022-09-23T01:01:37.821Z,4.56
2022-09-23T01:06:44.733Z,4.52
2022-09-23T01:11:53.565Z,4.42
2022-09-23T01:17:01.670Z,4.25
2022-09-23T01:22:08.661Z,4.19
2022-09-23T01:27:15.506Z,4.13
2022-09-23T01:32:23.334Z,4.15
2022-09-23T01:37:40.329Z,4.08
2022-09-23T01:42:47.775Z,4.06
2022-09-23T01:47:56.267Z,4.03
2022-09-23T01:53:04.784Z,4.06
2022-09-23T01:58:12.124Z,3.96
2022-09-23T02:03:20.093Z,3.84
2022-09-23T02:08:28.470Z,3.89
2022-09-23T02:13:35.672Z,3.9
2022-09-23T02:18:44.046Z,3.75
2022-09-23T02:23:51.324Z,3.7
2022-09-23T02:28:59.076Z,3.64
2022-09-23T02:34:08.055Z,3.52
2022-09-23T02:39:17.019Z,3.44
2022-09-23T02:44:24.749Z,3.42
2022-09-23T02:49:40.745Z,3.53
2022-09-23T02:54:47.943Z,3.57
2022-09-23T02:59:55.768Z,3.62
2022-09-23T03:05:03.669Z,3.66
2022-09-23T03:10:11.453Z,3.62
2022-09-23T03:15:19.291Z,3.52
2022-09-23T03:20:27.449Z,3.51
2022-09-23T03:25:37.364Z,3.55
2022-09-23T03:30:45.327Z,3.54
2022-09-23T03:35:52.130Z,3.39
2022-09-23T03:41:00.408Z,3.28
2022-09-23T03:46:09.153Z,3.21
2022-09-23T03:51:17.371Z,3.33
2022-09-23T03:56:24.590Z,3.5
2022-09-23T04:01:32.539Z,3.52
2022-09-23T04:06:39.673Z,3.47
2022-09-23T04:11:46.869Z,3.36
2022-09-23T04:17:03.336Z,3.21
2022-09-23T04:22:10.811Z,3.22
2022-09-23T04:27:18.263Z,3.14
2022-09-23T04:32:25.217Z,3.03
2022-09-23T04:37:33.014Z,3.03
2022-09-23T04:42:41.470Z,3.12
2022-09-23T04:47:48.911Z,3.14
2022-09-23T04:52:56.579Z,3.16
2022-09-23T04:58:03.131Z,3.26
2022-09-23T05:03:11.364Z,3.38
2022-09-23T05:08:20.070Z,3.39
2022-09-23T05:13:28.459Z,3.48
2022-09-23T05:18:35.819Z,3.55
2022-09-23T05:23:44.196Z,3.52
2022-09-23T05:28:52.602Z,3.58
2022-09-23T05:34:00.576Z,3.72
2022-09-23T05:39:08.363Z,3.74
2022-09-23T05:44:15.793Z,3.81
2022-09-23T05:49:25.049Z,3.96
2022-09-23T05:54:33.374Z,4.05
2022-09-23T05:59:40.767Z,4.4
2022-09-23T06:04:48.372Z,5.92
2022-09-23T06:09:57.778Z,7.11
2022-09-23T06:15:06.363Z,7.99
2022-09-23T06:20:14.336Z,8.73
2022-09-23T06:25:22.539Z,9.38
2022-09-23T06:30:32.260Z,9.83
2022-09-23T06:35:39.195Z,10.08
2022-09-23T06:40:47.026Z,10.43
2022-09-23T06:45:54.819Z,10.66
2022-09-23T06:51:02.865Z,10.9
2022-09-23T06:56:11.885Z,11.44
2022-09-23T07:01:18.992Z,11.88
2022-09-23T07:06:26.338Z,12.12
2022-09-23T07:11:34.244Z,12.38
2022-09-23T07:16:41.218Z,12.83
2022-09-23T07:21:48.943Z,12.86
2022-09-23T07:26:56.872Z,13.1
2022-09-23T07:32:04.310Z,13.26
2022-09-23T07:37:11.966Z,13.62
2022-09-23T07:42:19.769Z,14.03
2022-09-23T07:47:26.315Z,13.94
2022-09-23T07:52:34.246Z,14.22
2022-09-23T07:57:42.511Z,14.92
2022-09-23T08:02:50.640Z,15.25
2022-09-23T08:07:57.976Z,15.67
2022-09-23T08:13:06.070Z,15.93
2022-09-23T08:18:14.428Z,16.2
2022-09-23T08:23:22.377Z,16.7
2022-09-23T08:28:30.587Z,17.15
2022-09-23T08:33:38.829Z,17.66
2022-09-23T08:38:46.669Z,17.78
2022-09-23T08:43:54.341Z,17.82
2022-09-23T08:49:01.753Z,17.28
2022-09-23T08:54:09.384Z,17.46
2022-09-23T08:59:16.785Z,17.28
2022-09-23T09:04:24.066Z,17.26
2022-09-23T09:09:31.244Z,17.26
2022-09-23T09:14:38.978Z,16.88
2022-09-23T09:19:46.829Z,16.46
2022-09-23T09:24:56.334Z,16.46
2022-09-23T09:30:04.182Z,16.69
2022-09-23T09:35:12.190Z,17.08
2022-09-23T09:40:19.532Z,17.33
2022-09-23T09:45:27.659Z,17.22
2022-09-23T09:50:36.049Z,17.48
2022-09-23T09:55:43.672Z,17.66
2022-09-23T10:00:52.343Z,17.93
2022-09-23T10:06:00.119Z,17.39
2022-09-23T10:11:07.836Z,17.2
2022-09-23T10:16:16.124Z,17.12
2022-09-23T10:21:25.019Z,17.8
2022-09-23T10:26:32.522Z,17.99
2022-09-23T10:31:40.083Z,18.98
2022-09-23T10:36:48.086Z,19.5
2022-09-23T10:41:54.757Z,19.8
2022-09-23T10:47:01.324Z,19.26
2022-09-23T10:52:09.286Z,18.68
2022-09-23T10:57:16.482Z,18.48
2022-09-23T11:02:25.237Z,18.41
2022-09-23T11:07:33.331Z,18.48
2022-09-23T11:12:39.904Z,18.48
2022-09-23T11:17:47.740Z,18.33
2022-09-23T11:22:55.516Z,18.32
2022-09-23T11:28:03.372Z,18.69
2022-09-23T11:33:11.261Z,18.96
2022-09-23T11:38:19.713Z,18.3
2022-09-23T11:43:27.769Z,18.76
2022-09-23T11:48:34.836Z,18.76
2022-09-23T11:53:42.834Z,18.93
2022-09-23T11:58:50.474Z,18.74
2022-09-23T12:03:59.705Z,18.96
2022-09-23T12:09:07.489Z,19.07
2022-09-23T12:14:13.996Z,18.75
2022-09-23T12:19:22.528Z,18.2
2022-09-23T12:24:31.544Z,18.44
2022-09-23T12:29:42.273Z,18.22
2022-09-23T12:34:49.879Z,18.26
2022-09-23T12:39:56.384Z,17.78
2022-09-23T12:45:05.184Z,17.6
2022-09-23T12:50:12.726Z,17.74
2022-09-23T12:55:21.702Z,17.88
2022-09-23T13:00:29.399Z,17.52
2022-09-23T13:05:37.561Z,17.83
2022-09-23T13:10:44.765Z,17.51
2022-09-23T13:15:52.245Z,17.29
2022-09-23T13:20:59.175Z,17.2
2022-09-23T13:26:07.172Z,17.26
2022-09-23T13:31:15.439Z,17.18
2022-09-23T13:36:23.781Z,17.22
2022-09-23T13:41:31.632Z,17.29
2022-09-23T13:46:39.027Z,17.36
2022-09-23T13:51:47.184Z,17.33
2022-09-23T13:56:54.685Z,17.29
2022-09-23T14:02:02.618Z,17.24
2022-09-23T14:07:09.741Z,17.15
2022-09-23T14:12:18.028Z,17.23
2022-09-23T14:17:25.977Z,17.04
2022-09-23T14:22:32.524Z,16.93
2022-09-23T14:27:40.900Z,16.82
2022-09-23T14:32:47.899Z,16.6
2022-09-23T14:37:56.207Z,16.4
2022-09-23T14:43:04.607Z,16.35
2022-09-23T14:48:12.144Z,16.64
2022-09-23T14:53:19.023Z,16.99
2022-09-23T14:58:26.648Z,16.8
2022-09-23T15:03:33.417Z,16.41
2022-09-23T15:08:41.837Z,16.33
2022-09-23T15:13:50.726Z,16.15
2022-09-23T15:18:59.586Z,15.94
2022-09-23T15:24:06.655Z,15.82
2022-09-23T15:29:13.857Z,15.68
2022-09-23T15:34:21.049Z,15.51
2022-09-23T15:39:28.482Z,15.38
2022-09-23T15:44:36.780Z,15.24
2022-09-23T15:49:44.936Z,15.0
2022-09-23T15:54:52.830Z,14.8
2022-09-23T15:59:59.615Z,14.55
2022-09-23T16:05:07.068Z,14.26
2022-09-23T16:10:14.598Z,13.97
2022-09-23T16:15:21.678Z,13.7
2022-09-23T16:20:27.810Z,13.43
2022-09-23T16:25:35.623Z,13.15
2022-09-23T16:30:43.097Z,12.92
2022-09-23T16:35:50.658Z,12.6
2022-09-23T16:40:58.500Z,12.32
2022-09-23T16:46:06.340Z,12.07
2022-09-23T16:51:14.555Z,11.78
2022-09-23T16:56:22.078Z,11.54
2022-09-23T17:01:30.584Z,11.29
2022-09-23T17:06:37.703Z,11.06
2022-09-23T17:11:50.030Z,10.86
2022-09-23T17:16:57.220Z,10.66
2022-09-23T17:22:05.220Z,10.48
2022-09-23T17:27:12.273Z,10.3
2022-09-23T17:32:19.470Z,10.2
2022-09-23T17:37:27.318Z,10.07
2022-09-23T17:42:35.142Z,9.98
2022-09-23T17:47:42.339Z,9.99
2022-09-23T17:52:49.748Z,10.0
2022-09-23T17:57:56.757Z,9.84
2022-09-23T18:03:04.772Z,9.7
2022-09-23T18:08:12.542Z,9.64
2022-09-23T18:13:19.628Z,9.49
2022-09-23T18:18:28.010Z,9.34
2022-09-23T18:23:35.993Z,9.26
2022-09-23T18:28:44.182Z,9.14
2022-09-23T18:33:50.986Z,8.89
2022-09-23T18:38:58.924Z,8.69
2022-09-23T18:44:06.618Z,8.57
2022-09-23T18:49:13.944Z,8.52
2022-09-23T18:54:22.889Z,8.44
2022-09-23T18:59:30.197Z,8.3
2022-09-23T19:04:37.433Z,8.2
2022-09-23T19:09:45.137Z,8.15
2022-09-23T19:14:53.120Z,8.08
2022-09-23T19:20:00.914Z,8.02
2022-09-23T19:25:09.326Z,7.88
2022-09-23T19:30:17.284Z,7.76
2022-09-23T19:35:25.438Z,7.64
2022-09-23T19:40:39.312Z,7.52
2022-09-23T19:45:48.434Z,7.39
2022-09-23T19:51:17.758Z,7.29
2022-09-23T19:56:25.921Z,7.16
2022-09-23T20:01:32.481Z,7.02
2022-09-23T20:06:39.681Z,6.97
2022-09-23T20:11:48.398Z,6.98
2022-09-23T20:16:56.726Z,6.97
2022-09-23T20:22:04.440Z,6.97
2022-09-23T20:27:11.637Z,6.98
2022-09-23T20:32:18.910Z,6.98
2022-09-23T20:37:27.851Z,6.82
2022-09-23T20:42:36.349Z,6.75
2022-09-23T20:47:43.668Z,6.67
2022-09-23T20:53:06.135Z,6.71
2022-09-23T20:58:13.630Z,6.54
2022-09-23T21:03:20.757Z,6.46
2022-09-23T21:08:29.431Z,6.39
2022-09-23T21:13:36.919Z,6.34
2022-09-23T21:18:45.152Z,6.4
2022-09-23T21:23:52.613Z,6.39
2022-09-23T21:29:00.968Z,6.3
2022-09-23T21:34:09.774Z,6.18
2022-09-23T21:39:17.376Z,6.08
2022-09-23T21:44:24.596Z,6.06
2022-09-23T21:49:33.089Z,6.04
2022-09-23T21:54:41.440Z,5.96
2022-09-23T21:59:49.070Z,5.96
2022-09-23T22:05:03.370Z,6.06
2022-09-23T22:10:11.399Z,6.03
2022-09-23T22:15:17.383Z,5.96
2022-09-23T22:20:25.700Z,5.86
2022-09-23T22:25:33.678Z,5.74
2022-09-23T22:30:41.950Z,5.74
2022-09-23T22:35:49.442Z,5.72
2022-09-23T22:40:56.317Z,5.62
2022-09-23T22:46:06.869Z,5.49
2022-09-23T22:51:15.466Z,5.44
2022-09-23T22:56:22.674Z,5.34
2022-09-23T23:01:31.222Z,5.22
2022-09-23T23:06:40.080Z,5.2
2022-09-23T23:11:46.832Z,5.21
2022-09-23T23:16:54.195Z,5.3
2022-09-23T23:22:01.971Z,5.32
2022-09-23T23:27:10.209Z,5.26
2022-09-23T23:32:18.718Z,5.2
2022-09-23T23:37:26.637Z,5.12
2022-09-23T23:42:34.517Z,5.18
2022-09-23T23:47:42.304Z,5.3
2022-09-23T23:52:50.550Z,5.22
2022-09-23T23:57:57.409Z,5.1
